createdAt,value
2018-06-03T00:00:00.463Z,101460.41
2018-06-03T00:00:21.971Z,101459.14
2018-06-03T00:00:43.498Z,101460.92
2018-06-03T00:01:05.008Z,101455.19
2018-06-03T00:01:26.537Z,101460.46
2018-06-03T00:01:48.100Z,101455.64
2018-06-03T00:02:10.077Z,101460.92
2018-06-03T00:02:31.605Z,101453.00
2018-06-03T00:02:53.136Z,101460.46
2018-06-03T00:03:14.648Z,101460.98
2018-06-03T00:03:36.172Z,101460.52
2018-06-03T00:03:57.687Z,101457.42
2018-06-03T00:04:19.209Z,101460.52
2018-06-03T00:04:40.725Z,101459.60
2018-06-03T00:05:02.236Z,101459.60
2018-06-03T00:05:23.767Z,101458.34
2018-06-03T00:05:45.320Z,101463.10
2018-06-03T00:06:06.835Z,101460.92
2018-06-03T00:06:28.347Z,101456.56
2018-06-03T00:06:49.860Z,101463.16
2018-06-03T00:07:11.384Z,101463.16
2018-06-03T00:07:32.905Z,101460.06
2018-06-03T00:07:54.464Z,101463.56
2018-06-03T00:08:15.984Z,101460.46
2018-06-03T00:08:37.512Z,101459.60
2018-06-03T00:08:59.033Z,101465.80
2018-06-03T00:09:20.678Z,101465.80
2018-06-03T00:09:42.245Z,101460.06
2018-06-03T00:10:03.742Z,101461.38
2018-06-03T00:10:25.247Z,101461.84
2018-06-03T00:10:46.768Z,101461.38
2018-06-03T00:11:08.286Z,101460.52
2018-06-03T00:11:29.795Z,101462.75
2018-06-03T00:11:51.325Z,101462.23
2018-06-03T00:12:12.864Z,101460.92
2018-06-03T00:12:34.383Z,101465.34
2018-06-03T00:12:55.917Z,101456.09
2018-06-03T00:13:17.431Z,101459.14
2018-06-03T00:13:38.952Z,101464.48
2018-06-03T00:14:00.473Z,101464.02
2018-06-03T00:14:22.017Z,101466.72
2018-06-03T00:14:43.544Z,101464.94
2018-06-03T00:15:05.073Z,101467.98
2018-06-03T00:15:26.869Z,101465.34
2018-06-03T00:15:48.556Z,101463.62
2018-06-03T00:16:10.102Z,101463.16
2018-06-03T00:16:31.638Z,101463.16
2018-06-03T00:16:53.147Z,101461.84
2018-06-03T00:17:14.661Z,101469.76
2018-06-03T00:17:36.199Z,101466.25
2018-06-03T00:17:57.972Z,101466.72
2018-06-03T00:18:19.490Z,101461.44
2018-06-03T00:18:41.094Z,101465.86
2018-06-03T00:19:02.613Z,101467.17
2018-06-03T00:19:24.156Z,101466.72
2018-06-03T00:19:45.663Z,101470.27
2018-06-03T00:20:07.318Z,101472.00
2018-06-03T00:20:28.844Z,101471.13
2018-06-03T00:20:50.369Z,101474.23
2018-06-03T00:21:11.894Z,101471.59
2018-06-03T00:21:33.424Z,101471.13
2018-06-03T00:21:54.940Z,101471.65
2018-06-03T00:22:16.471Z,101476.02
2018-06-03T00:22:38.024Z,101470.73
2018-06-03T00:22:59.556Z,101472.97
2018-06-03T00:23:21.083Z,101475.09
2018-06-03T00:23:42.613Z,101471.19
2018-06-03T00:24:04.142Z,101470.27
2018-06-03T00:24:25.660Z,101472.97
2018-06-03T00:24:47.478Z,101472.97
2018-06-03T00:25:08.987Z,101475.20
2018-06-03T00:25:30.503Z,101473.89
2018-06-03T00:25:52.023Z,101470.33
2018-06-03T00:26:13.565Z,101470.84
2018-06-03T00:26:35.087Z,101476.06
2018-06-03T00:26:56.737Z,101473.48
2018-06-03T00:27:18.294Z,101477.44
2018-06-03T00:27:39.812Z,101474.80
2018-06-03T00:28:01.456Z,101476.52
2018-06-03T00:28:22.973Z,101475.20
2018-06-03T00:28:44.506Z,101474.80
2018-06-03T00:29:06.022Z,101475.66
2018-06-03T00:29:27.708Z,101479.62
2018-06-03T00:29:49.240Z,101468.61
2018-06-03T00:30:10.768Z,101472.97
2018-06-03T00:30:32.293Z,101472.51
2018-06-03T00:30:53.840Z,101475.61
2018-06-03T00:31:15.357Z,101471.70
2018-06-03T00:31:36.888Z,101476.52
2018-06-03T00:31:58.609Z,101480.89
2018-06-03T00:32:20.160Z,101480.48
2018-06-03T00:32:41.686Z,101479.56
2018-06-03T00:33:03.232Z,101477.33
2018-06-03T00:33:24.755Z,101473.02
2018-06-03T00:33:46.262Z,101477.39
2018-06-03T00:34:07.915Z,101480.89
2018-06-03T00:34:29.428Z,101471.65
2018-06-03T00:34:50.994Z,101473.42
2018-06-03T00:35:12.480Z,101472.51
2018-06-03T00:35:34.019Z,101476.06
2018-06-03T00:35:55.544Z,101481.34
2018-06-03T00:36:17.274Z,101471.65
2018-06-03T00:36:38.955Z,101471.25
2018-06-03T00:37:00.473Z,101470.33
2018-06-03T00:37:21.995Z,101472.97
2018-06-03T00:37:43.504Z,101472.51
2018-06-03T00:38:05.056Z,101472.51
2018-06-03T00:38:26.581Z,101476.52
2018-06-03T00:38:48.271Z,101472.05
2018-06-03T00:39:09.796Z,101471.19
2018-06-03T00:39:31.396Z,101468.14
2018-06-03T00:39:52.912Z,101468.55
2018-06-03T00:40:14.448Z,101467.69
2018-06-03T00:40:35.974Z,101467.28
2018-06-03T00:40:57.691Z,101469.47
2018-06-03T00:41:19.272Z,101470.78
2018-06-03T00:41:40.780Z,101469.47
2018-06-03T00:42:02.292Z,101469.01
2018-06-03T00:42:23.956Z,101468.14
2018-06-03T00:42:45.467Z,101469.47
2018-06-03T00:43:07.005Z,101472.11
2018-06-03T00:43:28.711Z,101469.47
2018-06-03T00:43:50.220Z,101470.78
2018-06-03T00:44:11.752Z,101468.55
2018-06-03T00:44:33.270Z,101471.70
2018-06-03T00:44:54.780Z,101477.84
2018-06-03T00:45:16.309Z,101472.56
2018-06-03T00:45:38.223Z,101471.25
2018-06-03T00:45:59.747Z,101473.42
2018-06-03T00:46:21.265Z,101476.92
2018-06-03T00:46:42.789Z,101472.51
2018-06-03T00:47:04.313Z,101473.89
2018-06-03T00:47:25.822Z,101467.69
2018-06-03T00:47:47.357Z,101468.14
2018-06-03T00:48:09.007Z,101474.34
2018-06-03T00:48:30.527Z,101473.42
2018-06-03T00:48:52.034Z,101465.51
2018-06-03T00:49:13.560Z,101469.47
2018-06-03T00:49:35.081Z,101468.55
2018-06-03T00:49:56.600Z,101473.42
2018-06-03T00:50:18.556Z,101467.23
2018-06-03T00:50:40.068Z,101471.25
2018-06-03T00:51:01.594Z,101467.74
2018-06-03T00:51:23.110Z,101466.37
2018-06-03T00:51:44.635Z,101464.64
2018-06-03T00:52:06.152Z,101465.05
2018-06-03T00:52:28.020Z,101471.65
2018-06-03T00:52:49.556Z,101467.23
2018-06-03T00:53:11.106Z,101472.51
2018-06-03T00:53:32.632Z,101468.49
2018-06-03T00:53:54.136Z,101465.05
2018-06-03T00:54:15.673Z,101465.05
2018-06-03T00:54:37.352Z,101464.13
2018-06-03T00:54:58.880Z,101468.55
2018-06-03T00:55:20.396Z,101464.13
2018-06-03T00:55:41.924Z,101467.69
2018-06-03T00:56:03.448Z,101475.20
2018-06-03T00:56:24.956Z,101472.05
2018-06-03T00:56:46.480Z,101468.14
2018-06-03T00:57:08.017Z,101466.83
2018-06-03T00:57:29.664Z,101470.33
2018-06-03T00:57:51.186Z,101470.33
2018-06-03T00:58:12.695Z,101472.11
2018-06-03T00:58:34.212Z,101470.78
2018-06-03T00:58:55.722Z,101475.20
2018-06-03T00:59:17.288Z,101475.61
2018-06-03T00:59:39.131Z,101473.83
2018-06-03T01:00:00.808Z,101474.23
2018-06-03T01:00:22.320Z,101469.41
2018-06-03T01:00:43.971Z,101471.65
2018-06-03T01:01:05.482Z,101471.65
2018-06-03T01:01:27.005Z,101469.92
2018-06-03T01:01:48.555Z,101475.66
2018-06-03T01:02:10.121Z,101473.48
2018-06-03T01:02:31.635Z,101471.65
2018-06-03T01:02:53.148Z,101469.01
2018-06-03T01:03:14.700Z,101470.73
2018-06-03T01:03:36.212Z,101474.29
2018-06-03T01:03:57.747Z,101474.75
2018-06-03T01:04:19.443Z,101472.11
2018-06-03T01:04:40.972Z,101474.75
2018-06-03T01:05:02.487Z,101474.34
2018-06-03T01:05:23.996Z,101475.20
2018-06-03T01:05:45.508Z,101473.42
2018-06-03T01:06:07.021Z,101471.65
2018-06-03T01:06:28.923Z,101469.88
2018-06-03T01:06:50.460Z,101474.75
2018-06-03T01:07:11.975Z,101470.78
2018-06-03T01:07:33.496Z,101472.11
2018-06-03T01:07:55.029Z,101471.19
2018-06-03T01:08:16.582Z,101473.38
2018-06-03T01:08:38.259Z,101476.47
2018-06-03T01:08:59.965Z,101472.05
2018-06-03T01:09:21.477Z,101472.97
2018-06-03T01:09:43.000Z,101475.15
2018-06-03T01:10:04.511Z,101474.29
2018-06-03T01:10:26.036Z,101472.97
2018-06-03T01:10:47.544Z,101475.15
2018-06-03T01:11:09.278Z,101472.91
2018-06-03T01:11:30.796Z,101471.65
2018-06-03T01:11:52.321Z,101469.92
2018-06-03T01:12:13.832Z,101474.69
2018-06-03T01:12:35.340Z,101469.47
2018-06-03T01:12:56.865Z,101475.66
2018-06-03T01:13:18.424Z,101472.11
2018-06-03T01:13:39.954Z,101474.34
2018-06-03T01:14:01.481Z,101477.91
2018-06-03T01:14:23.009Z,101469.47
2018-06-03T01:14:44.523Z,101478.70
2018-06-03T01:15:06.044Z,101473.89
2018-06-03T01:15:27.578Z,101474.75
2018-06-03T01:15:49.088Z,101476.52
2018-06-03T01:16:10.820Z,101480.94
2018-06-03T01:16:32.533Z,101476.52
2018-06-03T01:16:54.155Z,101480.03
2018-06-03T01:17:15.661Z,101473.89
2018-06-03T01:17:37.374Z,101473.42
2018-06-03T01:17:58.928Z,101473.02
2018-06-03T01:18:20.507Z,101482.27
2018-06-03T01:18:42.049Z,101476.98
2018-06-03T01:19:03.568Z,101476.06
2018-06-03T01:19:25.092Z,101473.89
2018-06-03T01:19:46.602Z,101476.52
2018-06-03T01:20:08.283Z,101473.42
2018-06-03T01:20:29.811Z,101477.91
2018-06-03T01:20:51.340Z,101469.92
2018-06-03T01:21:12.877Z,101474.34
2018-06-03T01:21:34.400Z,101472.62
2018-06-03T01:21:55.944Z,101472.62
2018-06-03T01:22:17.509Z,101469.92
2018-06-03T01:22:39.099Z,101464.64
2018-06-03T01:23:00.616Z,101472.62
2018-06-03T01:23:22.154Z,101468.61
2018-06-03T01:23:43.678Z,101469.06
2018-06-03T01:24:05.195Z,101462.92
2018-06-03T01:24:26.890Z,101472.22
2018-06-03T01:24:48.561Z,101471.76
2018-06-03T01:25:10.092Z,101472.22
2018-06-03T01:25:31.604Z,101470.38
2018-06-03T01:25:53.114Z,101467.74
2018-06-03T01:26:14.631Z,101467.34
2018-06-03T01:26:36.145Z,101466.42
2018-06-03T01:26:57.877Z,101470.90
2018-06-03T01:27:19.388Z,101468.66
2018-06-03T01:27:40.904Z,101468.20
2018-06-03T01:28:02.414Z,101469.52
2018-06-03T01:28:23.959Z,101469.06
2018-06-03T01:28:45.488Z,101462.92
2018-06-03T01:29:07.018Z,101465.16
2018-06-03T01:29:28.552Z,101472.62
2018-06-03T01:29:50.063Z,101466.48
2018-06-03T01:30:11.581Z,101469.06
2018-06-03T01:30:33.139Z,101469.06
2018-06-03T01:30:54.660Z,101467.80
2018-06-03T01:31:16.179Z,101467.80
2018-06-03T01:31:37.987Z,101461.60
2018-06-03T01:31:59.513Z,101466.83
2018-06-03T01:32:21.025Z,101468.55
2018-06-03T01:32:42.546Z,101465.80
2018-06-03T01:33:04.061Z,101467.92
2018-06-03T01:33:25.606Z,101465.62
2018-06-03T01:33:47.145Z,101471.63
2018-06-03T01:34:08.662Z,101468.13
2018-06-03T01:34:30.182Z,101465.83
2018-06-03T01:34:51.701Z,101468.06
2018-06-03T01:35:13.229Z,101469.39
2018-06-03T01:35:34.755Z,101469.90
2018-06-03T01:35:56.268Z,101467.00
2018-06-03T01:36:17.785Z,101466.66
2018-06-03T01:36:39.309Z,101464.88
2018-06-03T01:37:01.127Z,101465.80
2018-06-03T01:37:22.688Z,101467.17
2018-06-03T01:37:44.208Z,101468.20
2018-06-03T01:38:05.735Z,101466.94
2018-06-03T01:38:27.284Z,101466.69
2018-06-03T01:38:48.804Z,101466.41
2018-06-03T01:39:10.698Z,101462.06
2018-06-03T01:39:32.224Z,101465.67
2018-06-03T01:39:53.735Z,101463.38
2018-06-03T01:40:15.259Z,101463.95
2018-06-03T01:40:36.773Z,101467.34
2018-06-03T01:40:58.301Z,101459.94
2018-06-03T01:41:19.927Z,101461.85
2018-06-03T01:41:41.500Z,101462.23
2018-06-03T01:42:03.032Z,101460.45
2018-06-03T01:42:24.542Z,101461.66
2018-06-03T01:42:46.047Z,101463.32
2018-06-03T01:43:07.567Z,101468.34
2018-06-03T01:43:29.115Z,101462.86
2018-06-03T01:43:50.945Z,101462.45
2018-06-03T01:44:12.463Z,101458.91
2018-06-03T01:44:33.969Z,101462.86
2018-06-03T01:44:55.482Z,101460.48
2018-06-03T01:45:17.001Z,101458.95
2018-06-03T01:45:38.524Z,101461.69
2018-06-03T01:46:00.045Z,101459.09
2018-06-03T01:46:21.619Z,101461.14
2018-06-03T01:46:43.150Z,101459.73
2018-06-03T01:47:04.651Z,101459.27
2018-06-03T01:47:26.173Z,101464.44
2018-06-03T01:47:47.680Z,101459.96
2018-06-03T01:48:09.202Z,101458.02
2018-06-03T01:48:31.164Z,101457.16
2018-06-03T01:48:52.707Z,101461.69
2018-06-03T01:49:14.219Z,101460.14
2018-06-03T01:49:35.744Z,101456.23
2018-06-03T01:49:57.256Z,101462.89
2018-06-03T01:50:18.775Z,101456.12
2018-06-03T01:50:40.291Z,101459.28
2018-06-03T01:51:01.817Z,101454.86
2018-06-03T01:51:23.344Z,101457.27
2018-06-03T01:51:44.852Z,101456.70
2018-06-03T01:52:06.373Z,101456.70
2018-06-03T01:52:27.886Z,101456.00
2018-06-03T01:52:49.400Z,101457.32
2018-06-03T01:53:10.914Z,101454.22
2018-06-03T01:53:32.443Z,101460.94
2018-06-03T01:53:53.956Z,101458.30
2018-06-03T01:54:15.462Z,101454.11
2018-06-03T01:54:36.974Z,101458.81
2018-06-03T01:54:58.491Z,101459.28
2018-06-03T01:55:19.999Z,101455.66
2018-06-03T01:55:41.521Z,101457.91
2018-06-03T01:56:03.026Z,101458.77
2018-06-03T01:56:24.560Z,101458.36
2018-06-03T01:56:46.087Z,101462.14
2018-06-03T01:57:07.706Z,101456.58
2018-06-03T01:57:29.225Z,101458.65
2018-06-03T01:57:50.749Z,101464.50
2018-06-03T01:58:12.268Z,101464.22
2018-06-03T01:58:33.799Z,101459.28
2018-06-03T01:58:55.316Z,101461.58
2018-06-03T01:59:16.834Z,101461.00
2018-06-03T01:59:38.346Z,101462.17
2018-06-03T01:59:59.855Z,101458.27
2018-06-03T02:00:21.377Z,101465.48
2018-06-03T02:00:42.896Z,101463.70
2018-06-03T02:01:04.411Z,101462.09
2018-06-03T02:01:25.941Z,101465.48
2018-06-03T02:01:47.459Z,101471.47
2018-06-03T02:02:08.981Z,101464.56
2018-06-03T02:02:30.495Z,101460.69
2018-06-03T02:02:52.020Z,101464.10
2018-06-03T02:03:13.547Z,101463.75
2018-06-03T02:03:35.088Z,101462.03
2018-06-03T02:03:56.623Z,101466.05
2018-06-03T02:04:18.135Z,101462.84
2018-06-03T02:04:39.665Z,101456.64
2018-06-03T02:05:01.177Z,101458.88
2018-06-03T02:05:22.709Z,101461.23
2018-06-03T02:05:44.244Z,101459.53
2018-06-03T02:06:05.769Z,101463.09
2018-06-03T02:06:27.335Z,101461.31
2018-06-03T02:06:48.854Z,101462.23
2018-06-03T02:07:10.441Z,101457.41
2018-06-03T02:07:31.959Z,101455.58
2018-06-03T02:07:53.478Z,101456.23
2018-06-03T02:08:15.010Z,101454.66
2018-06-03T02:08:36.552Z,101452.88
2018-06-03T02:08:58.078Z,101453.00
2018-06-03T02:09:19.600Z,101456.67
2018-06-03T02:09:41.107Z,101454.09
2018-06-03T02:10:02.640Z,101451.85
2018-06-03T02:10:24.145Z,101453.17
2018-06-03T02:10:45.664Z,101457.30
2018-06-03T02:11:07.171Z,101453.00
2018-06-03T02:11:28.726Z,101454.95
2018-06-03T02:11:50.240Z,101458.39
2018-06-03T02:12:11.753Z,101452.89
2018-06-03T02:12:33.280Z,101454.49
2018-06-03T02:12:54.804Z,101456.91
2018-06-03T02:13:16.336Z,101456.91
2018-06-03T02:13:37.883Z,101456.33
2018-06-03T02:13:59.400Z,101450.59
2018-06-03T02:14:20.913Z,101456.84
2018-06-03T02:14:42.424Z,101454.17
2018-06-03T02:15:03.943Z,101459.25
2018-06-03T02:15:25.455Z,101456.16
2018-06-03T02:15:46.960Z,101452.80
2018-06-03T02:16:08.472Z,101454.17
2018-06-03T02:16:29.980Z,101459.11
2018-06-03T02:16:51.504Z,101456.70
2018-06-03T02:17:13.017Z,101453.25
2018-06-03T02:17:34.523Z,101455.49
2018-06-03T02:17:56.050Z,101445.74
2018-06-03T02:18:17.568Z,101453.55
2018-06-03T02:18:39.110Z,101452.73
2018-06-03T02:19:00.635Z,101444.77
2018-06-03T02:19:22.156Z,101450.45
2018-06-03T02:19:43.672Z,101449.41
2018-06-03T02:20:05.189Z,101454.69
2018-06-03T02:20:26.717Z,101450.33
2018-06-03T02:20:48.228Z,101450.62
2018-06-03T02:21:09.761Z,101453.66
2018-06-03T02:21:31.287Z,101449.02
2018-06-03T02:21:52.808Z,101448.67
2018-06-03T02:22:14.339Z,101454.80
2018-06-03T02:22:35.852Z,101452.00
2018-06-03T02:22:57.372Z,101449.41
2018-06-03T02:23:18.880Z,101449.24
2018-06-03T02:23:40.416Z,101452.00
2018-06-03T02:24:01.951Z,101451.25
2018-06-03T02:24:23.469Z,101452.62
2018-06-03T02:24:44.984Z,101452.91
2018-06-03T02:25:06.561Z,101454.54
2018-06-03T02:25:28.079Z,101454.80
2018-06-03T02:25:49.591Z,101449.98
2018-06-03T02:26:11.103Z,101451.88
2018-06-03T02:26:32.636Z,101453.20
2018-06-03T02:26:54.158Z,101453.48
2018-06-03T02:27:15.690Z,101449.81
2018-06-03T02:27:37.216Z,101449.02
2018-06-03T02:27:58.751Z,101449.36
2018-06-03T02:28:20.269Z,101449.36
2018-06-03T02:28:41.820Z,101450.79
2018-06-03T02:29:03.336Z,101449.59
2018-06-03T02:29:24.862Z,101450.84
2018-06-03T02:29:46.413Z,101447.81
2018-06-03T02:30:07.952Z,101445.45
2018-06-03T02:30:29.462Z,101449.07
2018-06-03T02:30:50.988Z,101450.73
2018-06-03T02:31:12.511Z,101445.31
2018-06-03T02:31:34.040Z,101446.11
2018-06-03T02:31:55.637Z,101450.98
2018-06-03T02:32:17.165Z,101447.03
2018-06-03T02:32:38.692Z,101444.91
2018-06-03T02:33:00.205Z,101443.69
2018-06-03T02:33:21.741Z,101445.66
2018-06-03T02:33:43.290Z,101450.58
2018-06-03T02:34:04.806Z,101450.06
2018-06-03T02:34:26.329Z,101446.39
2018-06-03T02:34:47.856Z,101447.83
2018-06-03T02:35:09.369Z,101444.54
2018-06-03T02:35:30.909Z,101448.16
2018-06-03T02:35:52.420Z,101446.97
2018-06-03T02:36:13.935Z,101452.19
2018-06-03T02:36:35.454Z,101450.13
2018-06-03T02:36:56.977Z,101450.98
2018-06-03T02:37:18.487Z,101445.59
2018-06-03T02:37:40.030Z,101452.77
2018-06-03T02:38:01.553Z,101454.54
2018-06-03T02:38:23.068Z,101446.72
2018-06-03T02:38:44.632Z,101454.31
2018-06-03T02:39:06.155Z,101449.89
2018-06-03T02:39:27.693Z,101453.39
2018-06-03T02:39:49.204Z,101450.87
2018-06-03T02:40:10.711Z,101454.14
2018-06-03T02:40:32.240Z,101449.66
2018-06-03T02:40:53.747Z,101447.48
2018-06-03T02:41:15.256Z,101452.88
2018-06-03T02:41:36.763Z,101453.35
2018-06-03T02:41:58.283Z,101450.01
2018-06-03T02:42:19.796Z,101449.95
2018-06-03T02:42:41.308Z,101447.63
2018-06-03T02:43:02.811Z,101450.26
2018-06-03T02:43:24.361Z,101443.20
2018-06-03T02:43:45.905Z,101448.23
2018-06-03T02:44:07.436Z,101447.37
2018-06-03T02:44:28.951Z,101450.41
2018-06-03T02:44:50.476Z,101449.27
2018-06-03T02:45:12.005Z,101443.53
2018-06-03T02:45:33.536Z,101449.66
2018-06-03T02:45:55.047Z,101441.41
2018-06-03T02:46:16.568Z,101440.95
2018-06-03T02:46:38.112Z,101447.55
2018-06-03T02:46:59.730Z,101447.09
2018-06-03T02:47:21.257Z,101450.81
2018-06-03T02:47:42.775Z,101445.59
2018-06-03T02:48:04.279Z,101448.17
2018-06-03T02:48:25.786Z,101445.99
2018-06-03T02:48:47.327Z,101446.91
2018-06-03T02:49:08.863Z,101450.01
2018-06-03T02:49:30.382Z,101449.00
2018-06-03T02:49:51.909Z,101445.77
2018-06-03T02:50:13.428Z,101449.13
2018-06-03T02:50:34.947Z,101448.94
2018-06-03T02:50:56.459Z,101455.22
2018-06-03T02:51:17.979Z,101454.04
2018-06-03T02:51:39.488Z,101455.47
2018-06-03T02:52:01.011Z,101455.02
2018-06-03T02:52:22.532Z,101451.41
2018-06-03T02:52:44.044Z,101455.03
2018-06-03T02:53:05.547Z,101456.98
2018-06-03T02:53:27.101Z,101459.63
2018-06-03T02:53:48.650Z,101460.54
2018-06-03T02:54:10.168Z,101459.38
2018-06-03T02:54:31.692Z,101455.88
2018-06-03T02:54:53.213Z,101455.98
2018-06-03T02:55:14.741Z,101454.50
2018-06-03T02:55:36.257Z,101452.89
2018-06-03T02:55:57.790Z,101461.36
2018-06-03T02:56:19.312Z,101457.00
2018-06-03T02:56:40.870Z,101460.16
2018-06-03T02:57:02.349Z,101458.32
2018-06-03T02:57:23.870Z,101458.84
2018-06-03T02:57:45.389Z,101458.57
2018-06-03T02:58:06.918Z,101460.55
2018-06-03T02:58:28.445Z,101456.28
2018-06-03T02:58:49.989Z,101461.95
2018-06-03T02:59:11.503Z,101455.02
2018-06-03T02:59:33.033Z,101463.59
2018-06-03T02:59:54.561Z,101463.77
2018-06-03T03:00:16.085Z,101458.38
2018-06-03T03:00:37.608Z,101464.36
2018-06-03T03:00:59.146Z,101464.77
2018-06-03T03:01:20.655Z,101462.52
2018-06-03T03:01:42.187Z,101462.92
2018-06-03T03:02:03.711Z,101464.77
2018-06-03T03:02:25.233Z,101463.73
2018-06-03T03:02:46.751Z,101468.14
2018-06-03T03:03:08.269Z,101465.56
2018-06-03T03:03:29.798Z,101463.58
2018-06-03T03:03:51.349Z,101465.81
2018-06-03T03:04:12.884Z,101467.22
2018-06-03T03:04:34.400Z,101468.79
2018-06-03T03:04:55.921Z,101465.92
2018-06-03T03:05:17.434Z,101471.72
2018-06-03T03:05:38.949Z,101468.45
2018-06-03T03:06:00.476Z,101467.36
2018-06-03T03:06:21.988Z,101473.15
2018-06-03T03:06:43.563Z,101468.39
2018-06-03T03:07:05.068Z,101467.93
2018-06-03T03:07:26.594Z,101472.23
2018-06-03T03:07:48.118Z,101473.66
2018-06-03T03:08:09.639Z,101467.13
2018-06-03T03:08:31.154Z,101467.13
2018-06-03T03:08:52.695Z,101472.57
2018-06-03T03:09:14.199Z,101471.83
2018-06-03T03:09:35.720Z,101477.39
2018-06-03T03:09:57.242Z,101474.69
2018-06-03T03:10:18.750Z,101472.11
2018-06-03T03:10:40.262Z,101471.25
2018-06-03T03:11:01.785Z,101474.97
2018-06-03T03:11:23.307Z,101474.30
2018-06-03T03:11:44.813Z,101471.94
2018-06-03T03:12:06.448Z,101474.81
2018-06-03T03:12:27.955Z,101472.23
2018-06-03T03:12:49.491Z,101475.38
2018-06-03T03:13:11.003Z,101472.29
2018-06-03T03:13:32.518Z,101473.09
2018-06-03T03:13:54.063Z,101472.57
2018-06-03T03:14:15.583Z,101474.41
2018-06-03T03:14:37.109Z,101477.16
2018-06-03T03:14:58.634Z,101474.98
2018-06-03T03:15:20.144Z,101476.25
2018-06-03T03:15:41.647Z,101473.15
2018-06-03T03:16:03.153Z,101477.84
2018-06-03T03:16:24.655Z,101473.77
2018-06-03T03:16:46.164Z,101473.54
2018-06-03T03:17:07.711Z,101474.92
2018-06-03T03:17:29.231Z,101474.17
2018-06-03T03:17:50.743Z,101478.65
2018-06-03T03:18:12.255Z,101476.47
2018-06-03T03:18:33.768Z,101475.55
2018-06-03T03:18:55.308Z,101475.16
2018-06-03T03:19:16.810Z,101477.84
2018-06-03T03:19:38.793Z,101480.87
2018-06-03T03:20:00.311Z,101478.30
2018-06-03T03:20:21.841Z,101476.64
2018-06-03T03:20:43.358Z,101472.28
2018-06-03T03:21:04.872Z,101478.93
2018-06-03T03:21:26.382Z,101479.73
2018-06-03T03:21:47.896Z,101478.81
2018-06-03T03:22:09.453Z,101482.25
2018-06-03T03:22:30.974Z,101474.41
2018-06-03T03:22:52.501Z,101477.04
2018-06-03T03:23:14.030Z,101475.94
2018-06-03T03:23:35.571Z,101480.87
2018-06-03T03:23:57.107Z,101472.97
2018-06-03T03:24:18.625Z,101474.00
2018-06-03T03:24:40.196Z,101477.09
2018-06-03T03:25:01.707Z,101480.36
2018-06-03T03:25:23.225Z,101477.72
2018-06-03T03:25:44.747Z,101478.30
2018-06-03T03:26:06.270Z,101475.39
2018-06-03T03:26:27.788Z,101477.78
2018-06-03T03:26:49.311Z,101481.22
2018-06-03T03:27:10.824Z,101478.52
2018-06-03T03:27:32.349Z,101479.69
2018-06-03T03:27:53.855Z,101473.61
2018-06-03T03:28:15.389Z,101476.70
2018-06-03T03:28:36.907Z,101478.71
2018-06-03T03:28:58.449Z,101481.52
2018-06-03T03:29:19.958Z,101477.80
2018-06-03T03:29:41.475Z,101476.53
2018-06-03T03:30:02.998Z,101476.36
2018-06-03T03:30:24.510Z,101477.28
2018-06-03T03:30:46.031Z,101476.13
2018-06-03T03:31:07.541Z,101477.16
2018-06-03T03:31:29.060Z,101479.28
2018-06-03T03:31:50.585Z,101470.97
2018-06-03T03:32:12.104Z,101476.76
2018-06-03T03:32:33.615Z,101481.69
2018-06-03T03:32:55.136Z,101482.31
2018-06-03T03:33:16.647Z,101476.52
2018-06-03T03:33:38.194Z,101479.09
2018-06-03T03:33:59.739Z,101479.09
2018-06-03T03:34:21.259Z,101480.87
2018-06-03T03:34:42.776Z,101478.77
2018-06-03T03:35:04.289Z,101480.99
2018-06-03T03:35:25.808Z,101482.77
2018-06-03T03:35:47.325Z,101482.13
2018-06-03T03:36:08.842Z,101477.09
2018-06-03T03:36:30.364Z,101481.28
2018-06-03T03:36:51.946Z,101480.08
2018-06-03T03:37:13.455Z,101482.31
2018-06-03T03:37:34.958Z,101476.70
2018-06-03T03:37:56.477Z,101480.20
2018-06-03T03:38:17.993Z,101480.71
2018-06-03T03:38:39.511Z,101482.08
2018-06-03T03:39:01.059Z,101481.16
2018-06-03T03:39:22.568Z,101484.66
2018-06-03T03:39:44.084Z,101478.41
2018-06-03T03:40:05.624Z,101480.03
2018-06-03T03:40:27.144Z,101483.98
2018-06-03T03:40:48.683Z,101482.94
2018-06-03T03:41:10.187Z,101479.84
2018-06-03T03:41:31.699Z,101484.54
2018-06-03T03:41:53.221Z,101483.80
2018-06-03T03:42:14.754Z,101482.72
2018-06-03T03:42:36.329Z,101488.15
2018-06-03T03:42:57.857Z,101487.63
2018-06-03T03:43:19.374Z,101483.86
2018-06-03T03:43:40.875Z,101481.57
2018-06-03T03:44:02.412Z,101485.98
2018-06-03T03:44:23.936Z,101490.00
2018-06-03T03:44:45.447Z,101486.84
2018-06-03T03:45:06.964Z,101480.89
2018-06-03T03:45:28.485Z,101478.77
2018-06-03T03:45:50.005Z,101489.80
2018-06-03T03:46:11.530Z,101483.68
2018-06-03T03:46:33.046Z,101477.95
2018-06-03T03:46:54.573Z,101487.63
2018-06-03T03:47:16.089Z,101486.38
2018-06-03T03:47:37.595Z,101483.00
2018-06-03T03:47:59.120Z,101482.20
2018-06-03T03:48:20.626Z,101479.84
2018-06-03T03:48:42.135Z,101483.52
2018-06-03T03:49:03.684Z,101479.56
2018-06-03T03:49:25.217Z,101482.59
2018-06-03T03:49:46.736Z,101483.39
2018-06-03T03:50:08.251Z,101485.23
2018-06-03T03:50:29.767Z,101483.28
2018-06-03T03:50:51.311Z,101485.30
2018-06-03T03:51:12.831Z,101481.34
2018-06-03T03:51:34.345Z,101481.29
2018-06-03T03:51:55.868Z,101479.11
2018-06-03T03:52:17.388Z,101480.25
2018-06-03T03:52:38.908Z,101479.91
2018-06-03T03:53:00.416Z,101483.17
2018-06-03T03:53:21.924Z,101480.77
2018-06-03T03:53:43.447Z,101482.03
2018-06-03T03:54:04.979Z,101482.37
2018-06-03T03:54:26.500Z,101484.66
2018-06-03T03:54:48.020Z,101485.58
2018-06-03T03:55:09.527Z,101481.69
2018-06-03T03:55:31.037Z,101479.57
2018-06-03T03:55:52.553Z,101478.25
2018-06-03T03:56:14.168Z,101480.71
2018-06-03T03:56:35.706Z,101478.88
2018-06-03T03:56:57.233Z,101484.20
2018-06-03T03:57:18.741Z,101480.14
2018-06-03T03:57:40.291Z,101474.92
2018-06-03T03:58:01.815Z,101482.77
2018-06-03T03:58:23.335Z,101480.94
2018-06-03T03:58:44.856Z,101480.08
2018-06-03T03:59:06.407Z,101480.08
2018-06-03T03:59:27.942Z,101478.36
2018-06-03T03:59:49.465Z,101483.17
2018-06-03T04:00:10.980Z,101480.87
2018-06-03T04:00:32.514Z,101477.95
2018-06-03T04:00:54.036Z,101484.55
2018-06-03T04:01:15.542Z,101475.72
2018-06-03T04:01:37.063Z,101480.19
2018-06-03T04:01:58.653Z,101479.85
2018-06-03T04:02:20.171Z,101481.63
2018-06-03T04:02:41.685Z,101483.41
2018-06-03T04:03:03.208Z,101483.06
2018-06-03T04:03:24.721Z,101484.14
2018-06-03T04:03:46.243Z,101481.57
2018-06-03T04:04:07.769Z,101481.45
2018-06-03T04:04:29.299Z,101482.48
2018-06-03T04:04:50.808Z,101482.55
2018-06-03T04:05:12.328Z,101484.33
2018-06-03T04:05:33.847Z,101481.69